CheckWX is a tool to help pilots better visualize weather data.  It is not intended as a substitute for an official pre-flight weather briefing.

20:32:32 UTC

KCJR METAR
Culpeper Regional Airport
Culpeper, Virginia, USA
Current

18 mins ago

KCJR 182015Z AUTO 32013G20KT 10SM CLR 09/M05 A3008 RMK AO2 T00871052
Observed
Feb-18 @ 20:15 UTC
Wind
  • 320° at 13 KTS
  • Gusting to 20 KTS
Visibility
10 SM
Flight Rules
VFR
Cloud Levels
  • Clear skies
Temperature
C / 48°F
Dewpoint
-5°C / 23°F
Humidity
37%
Altimeter
30.08" Hg
Pressure
1018.62 hPa
Previous

58 mins ago

KCJR 181935Z AUTO 32019G27KT 10SM CLR 10/M04 A3005 RMK AO2 T00991043
Observed
Feb-18 @ 19:35 UTC
Wind
  • 320° at 19 KTS
  • Gusting to 27 KTS
Visibility
10 SM
Flight Rules
VFR
Cloud Levels
  • Clear skies
Temperature
10°C / 50°F
Dewpoint
-4°C / 25°F
Humidity
37%
Altimeter
30.05" Hg
Pressure
1017.62 hPa
Previous

1 hour ago

KCJR 181915Z AUTO 31012G24KT 10SM CLR 10/M03 A3004 RMK AO2 T01041035
Observed
Feb-18 @ 19:15 UTC
Wind
  • 310° at 12 KTS
  • Gusting to 24 KTS
Visibility
10 SM
Flight Rules
VFR
Cloud Levels
  • Clear skies
Temperature
10°C / 50°F
Dewpoint
-4°C / 25°F
Humidity
37%
Altimeter
30.04" Hg
Pressure
1017.32 hPa